Portada
METAR-TAF:

METAR-TAF

Aeroports :

Chichén Itzá, Mèxic

latitud: 20-38-30N, longitud: 088-26-58W, altitud: 31 m

Observació

L'informe es va fer fa 15 hores i 7 minuts, a les 19:45 UTC
Vent 8 kt del Sud
Temperatura 35°C
Humitat 47%
Pressió 1008 hPa
Visibilitat: 12.9 km
Núvols disperses a una alçada de 4000 ft, Cumulus congestus.

METAR: MMCT 151945Z 18008KT 8SM SCT040TCU 35/22 A2978 RMK 8/200

Hora: 05:52 (10:52 UTC)


TAF: manca

Observacions i pronòstics meteorològics de més de 4000 aeroports (METAR i TAF).

Les estacions disponibles són els punts grocs i vermells al mapa.

Posi el ratolí al punt desitjat per veure el nom de l'estació.

Feu clic per veure les observacions i els pronòstics meteorològics.

Per canviar el mapa: feu clic els botons verds amb una creu de color negre per apropar; al botó verd amb un guió per allunyar la imatge; o en les fletxes verdes per a mapes adjacents.


METAR-TAF: